Time;durP1;ratioP1;P1;durP2;ratioP2;P2;SDS_P1;SDS_P2;PMS_P1;PMS_P2;Temp;Humidity;BMP_temperature;BMP_pressure;BME280_temperature;BME280_humidity;BME280_pressure;Samples;Min_cycle;Max_cycle;Signal;HPM_P1;HPM_P2
2023/06/04 00:02:34;;;;;;;7.57;4.15;;;26.90;49.50;;;;;;10489057;28;20404;-24
2023/06/04 00:07:37;;;;;;;11.05;5.78;;;26.80;49.60;;;;;;10497462;28;20053;-24
2023/06/04 00:12:39;;;;;;;11.20;6.45;;;26.80;49.60;;;;;;10493459;28;20084;-24
2023/06/04 00:17:41;;;;;;;10.07;5.68;;;26.70;49.50;;;;;;10495592;28;20083;-23
2023/06/04 00:22:44;;;;;;;9.27;5.10;;;26.70;49.70;;;;;;10495231;28;20055;-24
2023/06/04 00:27:46;;;;;;;9.23;5.97;;;26.60;49.50;;;;;;10494256;28;20045;-23
2023/06/04 00:32:48;;;;;;;13.63;7.32;;;26.60;49.80;;;;;;10485814;28;20128;-24
2023/06/04 00:37:51;;;;;;;12.98;7.70;;;26.50;49.70;;;;;;10494355;28;20572;-24
2023/06/04 00:42:55;;;;;;;11.98;7.18;;;26.50;49.70;;;;;;10492491;28;20505;-23
2023/06/04 00:47:57;;;;;;;15.48;7.10;;;26.40;49.70;;;;;;10492190;28;20059;-24
2023/06/04 00:53:00;;;;;;;10.52;6.70;;;26.30;49.70;;;;;;10500315;28;20048;-24
2023/06/04 00:58:03;;;;;;;10.38;6.15;;;26.30;49.90;;;;;;10500576;28;20102;-23
2023/06/04 01:03:11;;;;;;;10.93;6.45;;;26.30;49.90;;;;;;10498360;28;20042;-24
2023/06/04 01:08:15;;;;;;;12.02;6.55;;;26.30;50.10;;;;;;10493062;28;20516;-23
2023/06/04 01:13:17;;;;;;;12.27;6.47;;;26.20;50.20;;;;;;10493123;28;20091;-24
2023/06/04 01:18:28;;;;;;;10.05;6.55;;;26.20;50.40;;;;;;10471268;28;20125;-23
2023/06/04 01:23:42;;;;;;;12.05;6.25;;;26.20;50.40;;;;;;10485949;28;20055;-23
2023/06/04 01:28:46;;;;;;;10.40;6.45;;;26.10;50.40;;;;;;10485720;28;20077;-23
2023/06/04 01:33:48;;;;;;;9.25;5.22;;;26.10;50.50;;;;;;10489296;28;20079;-24
2023/06/04 01:38:52;;;;;;;10.52;6.47;;;26.00;50.50;;;;;;10488977;28;20092;-24
2023/06/04 01:43:53;;;;;;;11.80;6.55;;;26.00;51.00;;;;;;10481104;28;20044;-23
2023/06/04 01:48:55;;;;;;;9.65;5.75;;;26.00;50.60;;;;;;10491464;28;20135;-24
2023/06/04 01:53:58;;;;;;;7.82;5.15;;;25.90;50.50;;;;;;10495953;28;20103;-24
2023/06/04 01:59:01;;;;;;;9.15;6.18;;;25.90;50.70;;;;;;10486497;28;20148;-24
2023/06/04 02:04:03;;;;;;;10.68;6.75;;;25.80;50.70;;;;;;10489540;28;20048;-24
2023/06/04 02:09:06;;;;;;;9.40;5.78;;;25.80;50.80;;;;;;10488754;28;20056;-24
2023/06/04 02:14:08;;;;;;;10.20;5.78;;;25.70;50.50;;;;;;10486839;28;20095;-24
2023/06/04 02:19:12;;;;;;;10.30;6.05;;;25.70;50.80;;;;;;10486925;28;20049;-23
2023/06/04 02:24:15;;;;;;;11.88;7.30;;;25.70;50.60;;;;;;10483997;28;20051;-24
2023/06/04 02:29:17;;;;;;;11.73;6.13;;;25.60;50.70;;;;;;10490859;28;20085;-24
2023/06/04 02:34:19;;;;;;;11.82;6.65;;;25.60;50.80;;;;;;10488288;28;20054;-24
2023/06/04 02:39:22;;;;;;;8.70;5.18;;;25.50;51.00;;;;;;10487418;28;20076;-24
2023/06/04 02:44:24;;;;;;;6.22;4.15;;;25.50;51.00;;;;;;10489050;28;20068;-24
2023/06/04 02:49:26;;;;;;;9.75;5.70;;;25.50;50.80;;;;;;10496800;28;20101;-23
2023/06/04 02:54:29;;;;;;;9.90;6.15;;;25.40;50.80;;;;;;10489047;28;20630;-23
2023/06/04 03:15:30;;;;;;;8.93;5.53;;;25.40;50.60;;;;;;10529558;27;20118;-23
2023/06/04 03:20:38;;;;;;;8.35;5.28;;;25.30;51.10;;;;;;10496171;28;20140;-24
2023/06/04 03:25:40;;;;;;;8.40;5.03;;;25.20;51.00;;;;;;10489694;28;20048;-23
2023/06/04 03:30:43;;;;;;;8.10;4.75;;;25.20;51.00;;;;;;10485850;28;20139;-23
2023/06/04 03:35:45;;;;;;;8.02;4.93;;;25.10;51.20;;;;;;10492323;28;20128;-22
2023/06/04 03:40:47;;;;;;;6.75;4.47;;;25.10;51.00;;;;;;10499140;28;20056;-22
2023/06/04 03:45:50;;;;;;;7.38;4.32;;;25.10;50.90;;;;;;10507196;28;20397;-23
2023/06/04 03:50:52;;;;;;;8.30;4.78;;;25.00;50.70;;;;;;10498225;28;20598;-23
2023/06/04 03:55:55;;;;;;;7.80;4.50;;;25.00;51.00;;;;;;10476870;28;20083;-23
2023/06/04 04:00:58;;;;;;;10.05;5.00;;;24.90;50.60;;;;;;10485773;28;20134;-23
2023/06/04 04:06:00;;;;;;;11.10;4.82;;;24.90;51.10;;;;;;10486198;28;20047;-25
2023/06/04 04:11:01;;;;;;;5.57;3.72;;;24.90;51.10;;;;;;10493763;28;20147;-24
2023/06/04 04:16:04;;;;;;;;;;;24.80;51.30;;;;;;10486676;28;20052;-24
2023/06/04 04:21:07;;;;;;;6.30;3.88;;;24.70;50.40;;;;;;10505706;28;19921;-24
2023/06/04 04:26:09;;;;;;;3.85;2.97;;;24.70;50.60;;;;;;10469082;28;20036;-24
2023/06/04 04:31:14;;;;;;;3.22;2.20;;;24.80;51.20;;;;;;10457993;28;20044;-24
2023/06/04 04:36:15;;;;;;;4.85;2.88;;;24.80;51.30;;;;;;10467623;28;20045;-24
2023/06/04 04:41:17;;;;;;;6.60;2.50;;;24.80;51.50;;;;;;10471511;28;20576;-25
2023/06/04 04:46:20;;;;;;;9.18;2.60;;;24.80;50.90;;;;;;10440983;28;20041;-24
2023/06/04 04:51:22;;;;;;;2.88;2.05;;;24.70;51.30;;;;;;10450610;28;20504;-25
2023/06/04 04:56:25;;;;;;;5.20;2.63;;;24.80;50.90;;;;;;10451500;28;20649;-24
2023/06/04 05:01:28;;;;;;;5.75;3.67;;;24.70;50.70;;;;;;10459314;28;20049;-24
2023/06/04 05:06:30;;;;;;;4.30;2.78;;;24.70;50.90;;;;;;10462544;28;20047;-24
2023/06/04 05:11:32;;;;;;;2.97;2.28;;;24.70;50.70;;;;;;10461646;28;20128;-24
2023/06/04 05:16:36;;;;;;;;;;;24.70;51.00;;;;;;10452681;28;20044;-24
2023/06/04 05:21:37;;;;;;;2.60;1.40;;;24.70;51.50;;;;;;10461054;28;19932;-24
2023/06/04 05:26:40;;;;;;;4.05;0.88;;;24.90;51.80;;;;;;10467289;28;20076;-24
2023/06/04 05:31:43;;;;;;;1.35;0.90;;;24.90;51.20;;;;;;10455880;28;20076;-24
2023/06/04 05:36:45;;;;;;;2.83;0.88;;;25.00;51.10;;;;;;10466369;28;20049;-24
2023/06/04 05:41:47;;;;;;;1.83;0.60;;;25.00;51.00;;;;;;10460706;28;20409;-24
2023/06/04 05:46:50;;;;;;;2.15;0.73;;;25.00;51.10;;;;;;10443408;28;20504;-24
2023/06/04 05:51:52;;;;;;;1.13;0.60;;;25.00;51.10;;;;;;10462834;28;20176;-24
2023/06/04 05:56:54;;;;;;;1.67;0.50;;;25.00;51.00;;;;;;10465288;28;20040;-24
2023/06/04 06:01:58;;;;;;;0.95;0.50;;;25.00;51.00;;;;;;10451272;28;20055;-24
2023/06/04 06:07:00;;;;;;;1.60;0.60;;;25.00;51.00;;;;;;10448516;28;20094;-24
2023/06/04 06:12:02;;;;;;;1.27;1.02;;;24.90;50.70;;;;;;10437454;28;20099;-24
2023/06/04 06:17:06;;;;;;;1.05;0.70;;;25.00;50.80;;;;;;10439391;28;20538;-24
2023/06/04 06:22:08;;;;;;;1.88;1.08;;;24.90;51.00;;;;;;10436913;28;20060;-24
2023/06/04 06:27:11;;;;;;;1.83;0.63;;;24.80;50.70;;;;;;10439961;28;20375;-24
2023/06/04 06:32:14;;;;;;;1.35;0.63;;;24.90;51.00;;;;;;10447566;28;20496;-24
2023/06/04 06:37:16;;;;;;;0.70;0.47;;;24.90;50.90;;;;;;10443786;28;20098;-22
2023/06/04 06:42:18;;;;;;;1.50;0.70;;;24.90;50.30;;;;;;10444072;28;20545;-24
2023/06/04 06:47:21;;;;;;;1.95;0.80;;;24.90;50.90;;;;;;10447729;28;20045;-24
2023/06/04 06:52:23;;;;;;;0.70;0.65;;;24.90;50.30;;;;;;10445133;28;20135;-24
2023/06/04 06:57:25;;;;;;;1.10;0.40;;;24.80;50.90;;;;;;10446028;28;20418;-24
2023/06/04 07:02:28;;;;;;;0.82;0.40;;;24.90;51.00;;;;;;10437891;28;20045;-24
2023/06/04 07:07:31;;;;;;;2.00;0.30;;;25.00;50.60;;;;;;10437886;28;20052;-24
2023/06/04 07:12:32;;;;;;;7.68;1.63;;;25.00;50.80;;;;;;10439759;28;20512;-24
2023/06/04 07:17:36;;;;;;;11.77;0.98;;;24.80;50.50;;;;;;10440244;28;20106;-25
2023/06/04 07:22:38;;;;;;;16.38;1.27;;;24.90;51.50;;;;;;10433620;28;20509;-24
2023/06/04 07:27:40;;;;;;;7.13;0.90;;;24.80;51.50;;;;;;10434609;28;20052;-24
2023/06/04 07:32:48;;;;;;;4.50;0.70;;;24.90;50.20;;;;;;10435268;28;20490;-28
2023/06/04 07:37:50;;;;;;;2.90;0.80;;;25.00;51.20;;;;;;10430957;28;20130;-24
2023/06/04 07:42:52;;;;;;;3.13;0.60;;;25.00;51.00;;;;;;10426257;28;20072;-24
2023/06/04 07:47:55;;;;;;;5.85;1.10;;;25.20;50.40;;;;;;10439496;28;20037;-24
2023/06/04 07:52:57;;;;;;;5.00;0.80;;;25.00;50.20;;;;;;10426050;28;20052;-24
2023/06/04 07:57:59;;;;;;;4.07;1.08;;;25.00;49.40;;;;;;10440905;28;20059;-24
2023/06/04 08:03:02;;;;;;;2.90;0.65;;;25.10;51.50;;;;;;10449885;28;20706;-24
2023/06/04 08:08:04;;;;;;;2.28;0.70;;;25.50;50.10;;;;;;10445876;28;20453;-24
2023/06/04 08:13:06;;;;;;;1.52;0.68;;;25.20;50.00;;;;;;10442098;28;20064;-24
2023/06/04 08:18:09;;;;;;;4.53;0.80;;;25.00;49.20;;;;;;10446030;28;20538;-24
2023/06/04 08:23:11;;;;;;;1.85;0.63;;;25.20;49.30;;;;;;10448208;28;20065;-24
2023/06/04 08:28:15;;;;;;;3.65;0.95;;;25.40;49.00;;;;;;10456930;28;20037;-24
2023/06/04 08:33:18;;;;;;;15.43;6.93;;;25.60;49.40;;;;;;10451781;28;20056;-25
2023/06/04 08:38:20;;;;;;;13.18;6.97;;;25.60;49.40;;;;;;10463708;28;20455;-24
2023/06/04 08:43:22;;;;;;;15.27;6.00;;;25.50;49.10;;;;;;10466820;28;20043;-24
2023/06/04 08:48:27;;;;;;;9.77;4.97;;;25.50;49.70;;;;;;10449461;28;20102;-24
2023/06/04 08:53:30;;;;;;;22.38;7.32;;;25.80;50.10;;;;;;10450526;28;20080;-24
2023/06/04 08:58:33;;;;;;;18.05;5.50;;;25.80;49.70;;;;;;10448818;28;20048;-25
2023/06/04 09:03:38;;;;;;;14.95;5.20;;;25.80;47.10;;;;;;10449609;28;20057;-23
2023/06/04 09:08:43;;;;;;;12.00;4.28;;;25.90;50.10;;;;;;10454061;28;20051;-23
2023/06/04 09:13:49;;;;;;;11.27;4.10;;;26.10;49.00;;;;;;10449685;28;20057;-24
2023/06/04 09:18:52;;;;;;;8.75;2.88;;;26.20;49.60;;;;;;10446850;28;20094;-25
2023/06/04 09:23:54;;;;;;;2.72;1.40;;;25.80;49.30;;;;;;10446236;28;20076;-24
2023/06/04 09:28:57;;;;;;;3.45;1.17;;;25.60;46.60;;;;;;10453158;28;20072;-24
2023/06/04 09:34:01;;;;;;;2.72;1.23;;;25.50;46.10;;;;;;10447465;28;20055;-24
2023/06/04 09:39:04;;;;;;;4.63;1.20;;;25.70;46.70;;;;;;10447277;28;20037;-25
2023/06/04 09:44:10;;;;;;;4.00;0.90;;;25.50;45.30;;;;;;10456056;28;20515;-25
2023/06/04 09:49:13;;;;;;;2.33;1.17;;;25.20;46.00;;;;;;10449153;28;20523;-24
2023/06/04 09:54:15;;;;;;;3.65;0.70;;;25.00;46.70;;;;;;10453400;28;20076;-25
2023/06/04 09:59:18;;;;;;;2.58;0.93;;;24.90;48.00;;;;;;10449961;28;20045;-24
2023/06/04 10:04:21;;;;;;;2.90;0.68;;;25.00;48.40;;;;;;10442618;28;20174;-25
2023/06/04 10:09:26;;;;;;;2.88;1.13;;;24.90;49.10;;;;;;10442258;28;20040;-24
2023/06/04 10:14:33;;;;;;;4.15;0.82;;;24.50;50.40;;;;;;10452264;28;20061;-25
2023/06/04 10:19:39;;;;;;;3.58;0.95;;;24.80;49.70;;;;;;10462234;28;20048;-25
2023/06/04 10:24:40;;;;;;;2.80;0.90;;;24.60;49.80;;;;;;10444162;28;20132;-24
2023/06/04 10:29:43;;;;;;;2.00;0.65;;;25.00;50.20;;;;;;10445314;28;20166;-26
2023/06/04 10:34:47;;;;;;;7.53;1.50;;;25.30;49.50;;;;;;10451044;28;20144;-25
2023/06/04 10:39:52;;;;;;;4.15;1.15;;;23.50;52.50;;;;;;10434029;28;20076;-26
2023/06/04 10:44:56;;;;;;;4.88;1.63;;;24.80;50.80;;;;;;10418358;28;20045;-23
2023/06/04 10:50:08;;;;;;;3.92;1.20;;;23.50;53.80;;;;;;10442648;28;20103;-24
2023/06/04 10:55:11;;;;;;;7.40;1.00;;;23.70;53.30;;;;;;10454583;28;20047;-25
2023/06/04 11:00:14;;;;;;;3.67;1.10;;;24.00;53.00;;;;;;10456633;28;20064;-24
2023/06/04 11:05:17;;;;;;;4.32;1.58;;;23.40;53.80;;;;;;10445325;28;20127;-25
2023/06/04 11:10:19;;;;;;;3.45;1.45;;;23.80;52.50;;;;;;10442689;28;20078;-25
2023/06/04 11:15:21;;;;;;;3.35;1.15;;;23.80;51.40;;;;;;10442434;28;20466;-25
2023/06/04 11:20:25;;;;;;;5.57;1.17;;;23.40;54.00;;;;;;10442789;28;20512;-25
2023/06/04 11:25:28;;;;;;;9.85;1.33;;;24.30;52.10;;;;;;10447091;28;20201;-26
2023/06/04 11:30:30;;;;;;;4.13;1.23;;;24.10;52.80;;;;;;10435740;28;20052;-25
2023/06/04 11:35:42;;;;;;;11.10;2.45;;;24.40;51.30;;;;;;10451688;28;20056;-25
2023/06/04 11:40:45;;;;;;;4.05;1.27;;;24.40;51.00;;;;;;10454366;28;20075;-22
2023/06/04 11:45:47;;;;;;;4.32;1.70;;;24.00;53.00;;;;;;10463780;28;20048;-25
2023/06/04 11:50:50;;;;;;;6.75;1.70;;;24.30;52.40;;;;;;10451950;28;20095;-22
2023/06/04 11:55:52;;;;;;;8.52;1.88;;;24.70;50.40;;;;;;10456034;28;20570;-25
2023/06/04 12:00:56;;;;;;;4.93;1.10;;;24.10;50.30;;;;;;10465354;28;20512;-24
2023/06/04 12:05:59;;;;;;;2.55;1.20;;;24.70;51.10;;;;;;10447746;28;20076;-25
2023/06/04 12:11:01;;;;;;;3.15;1.55;;;25.50;50.20;;;;;;10431199;28;20067;-26
2023/06/04 12:16:03;;;;;;;8.63;2.55;;;25.40;51.30;;;;;;10399040;28;20206;-24
2023/06/04 12:21:06;;;;;;;3.78;1.30;;;24.70;50.80;;;;;;10437873;28;20132;-24
2023/06/04 12:26:08;;;;;;;2.83;1.00;;;25.20;50.60;;;;;;10436799;28;20149;-25
2023/06/04 12:31:16;;;;;;;6.80;1.75;;;25.60;51.20;;;;;;10443644;28;20045;-25
2023/06/04 12:36:19;;;;;;;63.00;34.42;;;25.60;49.80;;;;;;10440980;28;20153;-24
2023/06/04 12:41:21;;;;;;;6.63;1.42;;;26.30;49.20;;;;;;10443846;28;20045;-25
2023/06/04 12:46:23;;;;;;;8.40;1.77;;;26.10;50.20;;;;;;10433125;28;20049;-25
2023/06/04 12:51:27;;;;;;;8.45;2.63;;;26.00;50.10;;;;;;10438097;28;20114;-24
2023/06/04 12:56:29;;;;;;;5.15;1.33;;;26.00;50.00;;;;;;10447436;28;20137;-25
2023/06/04 13:01:31;;;;;;;4.13;1.45;;;27.10;48.90;;;;;;10448559;28;20143;-25
2023/06/04 13:06:36;;;;;;;4.65;1.20;;;27.30;48.40;;;;;;10448018;28;20134;-25
2023/06/04 13:11:39;;;;;;;5.20;1.65;;;27.20;48.50;;;;;;10451203;28;20053;-25
2023/06/04 13:16:41;;;;;;;5.10;1.27;;;27.20;48.70;;;;;;10440264;28;20156;-25
2023/06/04 13:21:44;;;;;;;6.18;1.08;;;27.10;48.90;;;;;;10453457;28;20612;-24
2023/06/04 13:26:46;;;;;;;6.75;1.58;;;27.10;48.90;;;;;;10452243;28;20569;-25
2023/06/04 13:31:48;;;;;;;7.22;1.63;;;27.60;48.40;;;;;;10449713;28;20063;-25
2023/06/04 13:36:51;;;;;;;6.75;1.73;;;27.70;48.00;;;;;;10454732;28;20111;-25
2023/06/04 13:41:53;;;;;;;4.97;1.70;;;27.40;47.70;;;;;;10442208;28;20599;-25
2023/06/04 13:46:55;;;;;;;5.30;1.33;;;27.40;48.50;;;;;;10438341;28;20076;-26
2023/06/04 13:51:58;;;;;;;7.18;1.63;;;27.70;47.80;;;;;;10444317;28;20139;-27
2023/06/04 13:57:03;;;;;;;6.05;1.55;;;27.90;47.90;;;;;;10444474;28;20078;-25
2023/06/04 14:02:05;;;;;;;3.53;1.20;;;28.00;47.60;;;;;;10452261;28;20466;-25
2023/06/04 14:07:08;;;;;;;5.75;1.67;;;28.00;47.80;;;;;;10449135;28;20124;-25
2023/06/04 14:12:10;;;;;;;4.57;1.30;;;27.90;47.80;;;;;;10439169;28;20462;-25
2023/06/04 14:17:12;;;;;;;8.32;1.77;;;28.10;48.00;;;;;;10447559;28;20115;-26
2023/06/04 14:22:15;;;;;;;5.15;1.33;;;28.20;47.60;;;;;;10432381;28;20131;-25
2023/06/04 14:27:17;;;;;;;4.47;1.52;;;28.20;47.30;;;;;;10442705;28;20037;-25
2023/06/04 14:32:19;;;;;;;6.82;2.05;;;28.50;47.70;;;;;;10440017;28;20543;-25
2023/06/04 14:37:22;;;;;;;8.88;1.48;;;28.60;47.30;;;;;;10448974;28;20049;-25
2023/06/04 14:42:24;;;;;;;9.35;1.95;;;28.70;47.20;;;;;;10438108;28;20122;-23
2023/06/04 14:47:26;;;;;;;6.30;2.40;;;28.60;47.50;;;;;;10433633;28;20047;-25
2023/06/04 14:52:29;;;;;;;3.60;1.38;;;28.70;47.30;;;;;;10436370;28;20132;-23
2023/06/04 14:57:32;;;;;;;7.10;1.48;;;28.70;47.40;;;;;;10442686;28;20139;-24
2023/06/04 15:02:34;;;;;;;3.83;1.50;;;28.70;47.20;;;;;;10444169;28;20111;-23
2023/06/04 15:07:38;;;;;;;6.25;1.52;;;28.90;47.40;;;;;;10446034;28;20041;-25
2023/06/04 15:12:40;;;;;;;6.78;2.30;;;29.00;47.60;;;;;;10441418;28;20394;-22
2023/06/04 15:17:42;;;;;;;7.55;1.20;;;29.20;48.00;;;;;;10444388;28;20056;-24
2023/06/04 15:22:45;;;;;;;7.38;1.55;;;29.50;47.90;;;;;;10447931;28;20568;-24
2023/06/04 15:27:47;;;;;;;5.72;1.92;;;29.40;48.80;;;;;;10438038;28;20163;-23
2023/06/04 15:32:49;;;;;;;7.38;1.48;;;29.40;47.80;;;;;;10443126;28;20395;-24
2023/06/04 15:37:52;;;;;;;3.97;1.60;;;29.60;47.80;;;;;;10449274;28;20076;-24
2023/06/04 15:42:54;;;;;;;4.72;1.25;;;29.20;50.10;;;;;;10446200;28;20132;-24
2023/06/04 15:47:56;;;;;;;7.55;2.30;;;29.30;50.00;;;;;;10441861;28;20061;-24
2023/06/04 15:52:59;;;;;;;14.90;2.13;;;29.70;49.30;;;;;;10443753;28;20052;-23
2023/06/04 15:58:01;;;;;;;3.92;1.85;;;29.70;49.20;;;;;;10442397;28;20596;-23
2023/06/04 16:03:02;;;;;;;9.70;3.40;;;29.30;50.40;;;;;;10443428;28;20065;-25
2023/06/04 16:08:06;;;;;;;6.25;2.83;;;29.60;51.30;;;;;;10445142;28;20051;-24
2023/06/04 16:13:07;;;;;;;11.40;3.25;;;29.80;50.10;;;;;;10443251;28;20076;-24
2023/06/04 16:18:10;;;;;;;5.85;2.83;;;29.70;48.30;;;;;;10448230;28;20506;-24
2023/06/04 16:23:13;;;;;;;4.00;2.20;;;30.00;50.30;;;;;;10457301;28;20063;-26
2023/06/04 16:28:15;;;;;;;7.40;2.60;;;29.60;50.30;;;;;;10464955;28;20136;-23
2023/06/04 16:33:17;;;;;;;5.15;2.38;;;29.40;48.60;;;;;;10447801;28;20051;-24
2023/06/04 16:38:20;;;;;;;7.32;3.15;;;29.90;51.40;;;;;;10442888;28;20128;-23
2023/06/04 16:43:22;;;;;;;5.20;2.55;;;29.90;49.80;;;;;;10445533;28;20044;-23
2023/06/04 16:48:24;;;;;;;6.10;2.25;;;30.20;50.00;;;;;;10443503;28;20118;-23
2023/06/04 16:53:29;;;;;;;3.30;1.98;;;30.30;50.10;;;;;;10446412;28;20459;-24
2023/06/04 16:58:33;;;;;;;13.23;2.50;;;30.50;49.40;;;;;;10444005;28;20065;-24
2023/06/04 17:03:35;;;;;;;5.13;2.17;;;30.40;50.40;;;;;;10449181;28;20053;-23
2023/06/04 17:08:38;;;;;;;5.95;2.35;;;30.80;50.90;;;;;;10450682;28;20172;-24
2023/06/04 17:13:40;;;;;;;5.05;2.33;;;30.80;50.30;;;;;;10448104;28;20450;-24
2023/06/04 17:18:42;;;;;;;8.70;2.92;;;30.80;50.60;;;;;;10451009;28;20140;-23
2023/06/04 17:23:47;;;;;;;4.90;2.10;;;30.80;51.70;;;;;;10445820;28;20075;-24
2023/06/04 17:28:49;;;;;;;6.32;2.13;;;30.90;52.50;;;;;;10450782;28;20091;-24
2023/06/04 17:33:51;;;;;;;6.93;1.88;;;30.90;50.30;;;;;;10449237;28;20146;-23
2023/06/04 17:38:54;;;;;;;4.07;1.80;;;31.10;51.00;;;;;;10450509;28;20123;-24
2023/06/04 17:43:56;;;;;;;4.57;1.58;;;30.90;52.60;;;;;;10438465;28;20497;-23
2023/06/04 17:48:58;;;;;;;10.68;1.95;;;31.20;51.80;;;;;;10446421;28;20262;-28
2023/06/04 17:54:01;;;;;;;5.28;1.70;;;31.10;51.10;;;;;;10449794;28;20098;-23
2023/06/04 17:59:03;;;;;;;5.47;2.08;;;30.60;51.10;;;;;;10442118;28;20156;-24
2023/06/04 18:04:05;;;;;;;4.05;1.73;;;31.00;51.20;;;;;;10443374;28;20048;-23
2023/06/04 18:09:09;;;;;;;3.25;1.40;;;31.00;51.10;;;;;;10438897;28;20084;-24
2023/06/04 18:14:11;;;;;;;4.78;1.55;;;31.00;51.20;;;;;;10444647;28;20057;-24
2023/06/04 18:19:13;;;;;;;3.72;1.60;;;31.10;51.30;;;;;;10442323;28;20064;-23
2023/06/04 18:24:16;;;;;;;3.30;1.85;;;31.00;50.40;;;;;;10443126;28;20049;-24
2023/06/04 18:29:17;;;;;;;4.22;1.60;;;31.00;50.70;;;;;;10452231;28;20132;-23
2023/06/04 18:34:20;;;;;;;4.10;1.70;;;31.00;50.70;;;;;;10445103;28;20070;-24
2023/06/04 18:39:25;;;;;;;5.82;1.45;;;30.80;50.50;;;;;;10450559;28;20045;-24
2023/06/04 18:44:27;;;;;;;3.55;1.13;;;30.60;50.00;;;;;;10439347;28;20040;-24
2023/06/04 18:49:29;;;;;;;3.80;1.30;;;30.60;50.60;;;;;;10455042;28;20060;-24
2023/06/04 18:54:32;;;;;;;2.60;1.30;;;30.70;50.60;;;;;;10448562;28;20053;-25
2023/06/04 18:59:34;;;;;;;7.38;1.55;;;30.80;50.30;;;;;;10436720;28;20629;-22
2023/06/04 19:04:36;;;;;;;2.72;1.10;;;30.80;50.50;;;;;;10437470;28;20045;-24
2023/06/04 19:09:39;;;;;;;3.28;1.30;;;30.80;50.50;;;;;;10445287;28;20393;-23
2023/06/04 19:14:41;;;;;;;2.80;1.35;;;30.70;50.90;;;;;;10444998;28;20151;-24
2023/06/04 19:19:43;;;;;;;2.42;1.30;;;30.60;50.70;;;;;;10451896;28;20131;-24
2023/06/04 19:24:47;;;;;;;2.40;1.20;;;30.50;50.70;;;;;;10446871;28;20041;-25
2023/06/04 19:29:49;;;;;;;4.20;1.30;;;30.40;50.70;;;;;;10452737;28;20084;-24
2023/06/04 19:34:50;;;;;;;2.03;1.20;;;30.40;50.60;;;;;;10444158;28;20071;-24
2023/06/04 19:39:54;;;;;;;3.58;1.20;;;30.20;50.40;;;;;;10448060;28;20040;-23
2023/06/04 19:44:55;;;;;;;5.65;1.10;;;30.10;50.30;;;;;;10439169;28;20048;-23
2023/06/04 19:49:57;;;;;;;2.03;0.90;;;30.00;50.10;;;;;;10448085;28;20059;-25
2023/06/04 19:55:00;;;;;;;2.40;1.20;;;29.90;50.80;;;;;;10445379;28;20044;-23
2023/06/04 20:00:03;;;;;;;2.75;1.00;;;29.90;50.20;;;;;;10454144;28;20123;-23
2023/06/04 20:05:06;;;;;;;3.42;1.27;;;29.80;50.10;;;;;;10442703;28;20064;-24
2023/06/04 20:10:10;;;;;;;4.25;1.33;;;29.70;50.10;;;;;;10457858;28;20052;-24
2023/06/04 20:15:12;;;;;;;2.90;1.30;;;29.30;50.40;;;;;;10438996;28;20130;-23
2023/06/04 20:20:14;;;;;;;3.20;1.00;;;29.50;50.20;;;;;;10450835;28;20485;-24
2023/06/04 20:25:17;;;;;;;4.18;1.00;;;29.30;50.00;;;;;;10455904;28;20060;-24
2023/06/04 20:30:19;;;;;;;3.25;1.20;;;29.30;49.80;;;;;;10450807;28;20045;-24
2023/06/04 20:35:21;;;;;;;3.20;1.20;;;29.20;49.80;;;;;;10456544;28;20160;-24
2023/06/04 20:40:24;;;;;;;3.45;1.40;;;29.10;49.90;;;;;;10461443;28;20457;-24
2023/06/04 20:45:26;;;;;;;4.15;1.50;;;29.10;49.90;;;;;;10456802;28;20072;-24
2023/06/04 20:50:28;;;;;;;3.85;1.13;;;29.00;49.90;;;;;;10443420;28;20501;-24
2023/06/04 20:55:31;;;;;;;3.33;1.13;;;28.90;50.20;;;;;;10453800;28;20512;-23
2023/06/04 21:00:33;;;;;;;1.75;0.80;;;28.80;50.20;;;;;;10454532;28;20127;-24
2023/06/04 21:05:34;;;;;;;2.28;0.93;;;28.80;50.20;;;;;;10459575;28;20537;-24
2023/06/04 21:10:38;;;;;;;3.42;1.70;;;28.80;50.30;;;;;;10450783;28;20041;-24
2023/06/04 21:15:40;;;;;;;3.85;1.35;;;28.70;50.30;;;;;;10452398;28;20045;-24
2023/06/04 21:20:42;;;;;;;3.55;1.42;;;28.60;50.30;;;;;;10451977;28;20045;-25
2023/06/04 21:25:45;;;;;;;2.47;1.77;;;28.50;50.30;;;;;;10446713;28;20053;-24
2023/06/04 21:30:47;;;;;;;2.80;1.67;;;28.50;50.40;;;;;;10450137;28;20049;-24
2023/06/04 21:35:49;;;;;;;4.68;1.48;;;28.40;50.40;;;;;;10445656;28;20092;-24
2023/06/04 21:40:52;;;;;;;4.47;1.50;;;28.30;50.40;;;;;;10451392;28;20041;-23
2023/06/04 21:45:54;;;;;;;4.00;2.10;;;28.30;50.40;;;;;;10432602;28;20162;-24
2023/06/04 21:50:56;;;;;;;4.95;2.65;;;28.20;50.40;;;;;;10455486;28;20048;-24
2023/06/04 21:55:59;;;;;;;3.30;2.03;;;28.10;50.50;;;;;;10450984;28;20467;-25
2023/06/04 22:01:01;;;;;;;3.22;2.20;;;28.00;50.40;;;;;;10455504;28;20481;-24
2023/06/04 22:06:03;;;;;;;4.18;2.45;;;28.00;50.50;;;;;;10448835;28;20143;-27
2023/06/04 22:11:06;;;;;;;4.82;2.40;;;27.90;50.40;;;;;;10458161;28;20405;-24
2023/06/04 22:16:08;;;;;;;4.68;2.80;;;27.90;50.50;;;;;;10446907;28;20799;-24
2023/06/04 22:21:10;;;;;;;5.68;2.97;;;27.80;50.50;;;;;;10454723;28;20151;-23
2023/06/04 22:26:13;;;;;;;2.72;1.98;;;27.70;50.50;;;;;;10454302;28;20045;-24
2023/06/04 22:31:15;;;;;;;5.60;2.63;;;27.70;50.50;;;;;;10447125;28;20724;-24
2023/06/04 22:36:17;;;;;;;4.05;2.42;;;27.60;50.50;;;;;;10456673;28;20138;-24
2023/06/04 22:41:20;;;;;;;6.88;3.22;;;27.50;50.50;;;;;;10446108;28;20516;-27
2023/06/04 22:46:22;;;;;;;7.05;3.00;;;27.50;50.50;;;;;;10444864;28;20065;-24
2023/06/04 22:51:24;;;;;;;6.05;3.10;;;27.40;50.40;;;;;;10457720;28;20471;-24
2023/06/04 22:56:27;;;;;;;5.63;3.40;;;27.40;50.50;;;;;;10446586;28;20048;-24
2023/06/04 23:01:29;;;;;;;4.10;2.72;;;27.30;50.50;;;;;;10438414;28;20083;-23
2023/06/04 23:06:31;;;;;;;6.15;3.20;;;27.20;50.60;;;;;;10448544;28;20045;-24
2023/06/04 23:11:34;;;;;;;8.60;2.70;;;27.20;50.50;;;;;;10450614;28;20053;-24
2023/06/04 23:16:36;;;;;;;5.05;2.97;;;27.10;50.50;;;;;;10455910;28;20143;-24
2023/06/04 23:21:38;;;;;;;4.82;3.22;;;27.00;50.50;;;;;;10449597;28;20045;-24
2023/06/04 23:26:41;;;;;;;5.78;3.60;;;27.00;50.30;;;;;;10449167;28;20052;-24
2023/06/04 23:31:43;;;;;;;6.15;3.20;;;27.00;50.60;;;;;;10456671;28;20094;-25
2023/06/04 23:36:45;;;;;;;4.32;2.83;;;26.90;50.60;;;;;;10454994;28;20140;-24
2023/06/04 23:41:48;;;;;;;4.70;2.83;;;26.80;50.50;;;;;;10450436;28;20099;-24
2023/06/04 23:46:50;;;;;;;3.78;2.72;;;26.80;51.30;;;;;;10451332;28;20073;-24
2023/06/04 23:51:51;;;;;;;5.75;2.60;;;26.80;50.60;;;;;;10468197;28;20162;-23
2023/06/04 23:56:55;;;;;;;3.60;2.42;;;26.60;50.60;;;;;;10457583;28;20053;-24
